Terminal Aerodrome Forecast
Issued by NWS Billings, MT

Home | Current Version | Previous Version | Text Only | Print | Product List | Glossary On
Versions: 1 2 3 4 5 6 7 8 9 10 11 12 13 14
000
FTUS45 KBYZ 231740
TAFSHR
TAF
KSHR 231740Z 2318/2418 32026G35KT P6SM VCSH BKN050
     FM232000 29018G25KT P6SM BKN080
     FM240200 VRB04KT P6SM FEW100=

USA.gov is the U.S. government's official web portal to all federal, state and local government web resources and services.